sensor_id;sensor_type;location;lat;lon;timestamp;P1;durP1;ratioP1;P2;durP2;ratioP2
54307;SDS011;40208;39.778;2.710;2023-04-15T00:00:36;15.00;;;1.95;;
54307;SDS011;40208;39.778;2.710;2023-04-15T00:03:20;9.98;;;2.30;;
54307;SDS011;40208;39.778;2.710;2023-04-15T00:06:05;11.95;;;2.78;;
54307;SDS011;40208;39.778;2.710;2023-04-15T00:08:51;10.80;;;2.15;;
54307;SDS011;40208;39.778;2.710;2023-04-15T00:11:35;15.15;;;2.85;;
54307;SDS011;40208;39.778;2.710;2023-04-15T00:14:20;12.10;;;2.03;;
54307;SDS011;40208;39.778;2.710;2023-04-15T00:17:05;9.52;;;2.08;;
54307;SDS011;40208;39.778;2.710;2023-04-15T00:19:50;12.30;;;2.05;;
54307;SDS011;40208;39.778;2.710;2023-04-15T00:22:35;17.17;;;2.35;;
54307;SDS011;40208;39.778;2.710;2023-04-15T00:25:19;12.90;;;2.40;;
54307;SDS011;40208;39.778;2.710;2023-04-15T00:28:04;8.98;;;2.35;;
54307;SDS011;40208;39.778;2.710;2023-04-15T00:30:49;6.30;;;2.10;;
54307;SDS011;40208;39.778;2.710;2023-04-15T00:33:33;8.98;;;2.17;;
54307;SDS011;40208;39.778;2.710;2023-04-15T00:36:19;13.70;;;2.65;;
54307;SDS011;40208;39.778;2.710;2023-04-15T00:39:04;13.38;;;2.30;;
54307;SDS011;40208;39.778;2.710;2023-04-15T00:41:49;8.15;;;2.13;;
54307;SDS011;40208;39.778;2.710;2023-04-15T00:44:34;11.25;;;1.95;;
54307;SDS011;40208;39.778;2.710;2023-04-15T00:47:19;12.90;;;2.13;;
54307;SDS011;40208;39.778;2.710;2023-04-15T00:50:05;10.60;;;2.53;;
54307;SDS011;40208;39.778;2.710;2023-04-15T00:52:50;13.13;;;1.98;;
54307;SDS011;40208;39.778;2.710;2023-04-15T00:55:35;13.98;;;2.58;;
54307;SDS011;40208;39.778;2.710;2023-04-15T00:58:21;11.20;;;2.28;;
54307;SDS011;40208;39.778;2.710;2023-04-15T01:01:06;8.07;;;1.92;;
54307;SDS011;40208;39.778;2.710;2023-04-15T01:03:51;11.95;;;1.90;;
54307;SDS011;40208;39.778;2.710;2023-04-15T01:06:36;19.23;;;2.53;;
54307;SDS011;40208;39.778;2.710;2023-04-15T01:09:21;9.57;;;1.98;;
54307;SDS011;40208;39.778;2.710;2023-04-15T01:12:06;14.68;;;2.53;;
54307;SDS011;40208;39.778;2.710;2023-04-15T01:14:54;12.40;;;2.58;;
54307;SDS011;40208;39.778;2.710;2023-04-15T01:17:39;10.65;;;2.00;;
54307;SDS011;40208;39.778;2.710;2023-04-15T01:20:24;8.70;;;1.98;;
54307;SDS011;40208;39.778;2.710;2023-04-15T01:23:09;13.27;;;2.70;;
54307;SDS011;40208;39.778;2.710;2023-04-15T01:25:54;9.02;;;2.28;;
54307;SDS011;40208;39.778;2.710;2023-04-15T01:28:40;9.18;;;2.03;;
54307;SDS011;40208;39.778;2.710;2023-04-15T01:31:25;10.43;;;2.22;;
54307;SDS011;40208;39.778;2.710;2023-04-15T01:34:10;16.90;;;3.35;;
54307;SDS011;40208;39.778;2.710;2023-04-15T01:36:55;16.55;;;3.05;;
54307;SDS011;40208;39.778;2.710;2023-04-15T01:39:40;15.23;;;3.28;;
54307;SDS011;40208;39.778;2.710;2023-04-15T01:42:25;10.18;;;2.55;;
54307;SDS011;40208;39.778;2.710;2023-04-15T01:45:10;14.48;;;3.47;;
54307;SDS011;40208;39.778;2.710;2023-04-15T01:47:56;22.00;;;3.03;;
54307;SDS011;40208;39.778;2.710;2023-04-15T01:50:41;7.50;;;2.20;;
54307;SDS011;40208;39.778;2.710;2023-04-15T01:53:26;9.00;;;2.15;;
54307;SDS011;40208;39.778;2.710;2023-04-15T01:56:11;11.95;;;2.38;;
54307;SDS011;40208;39.778;2.710;2023-04-15T01:58:56;14.00;;;2.97;;
54307;SDS011;40208;39.778;2.710;2023-04-15T02:01:40;18.27;;;3.20;;
54307;SDS011;40208;39.778;2.710;2023-04-15T02:04:25;12.35;;;2.20;;
54307;SDS011;40208;39.778;2.710;2023-04-15T02:07:11;16.02;;;3.00;;
54307;SDS011;40208;39.778;2.710;2023-04-15T02:09:56;18.73;;;3.13;;
54307;SDS011;40208;39.778;2.710;2023-04-15T02:12:41;15.25;;;3.20;;
54307;SDS011;40208;39.778;2.710;2023-04-15T02:15:25;13.23;;;2.35;;
54307;SDS011;40208;39.778;2.710;2023-04-15T02:18:10;11.55;;;2.58;;
54307;SDS011;40208;39.778;2.710;2023-04-15T02:20:55;13.82;;;3.97;;
54307;SDS011;40208;39.778;2.710;2023-04-15T02:23:41;14.82;;;2.70;;
54307;SDS011;40208;39.778;2.710;2023-04-15T02:26:27;13.07;;;3.22;;
54307;SDS011;40208;39.778;2.710;2023-04-15T02:29:15;12.95;;;3.00;;
54307;SDS011;40208;39.778;2.710;2023-04-15T02:31:59;13.48;;;3.10;;
54307;SDS011;40208;39.778;2.710;2023-04-15T02:34:44;9.18;;;2.13;;
54307;SDS011;40208;39.778;2.710;2023-04-15T02:37:30;10.05;;;2.55;;
54307;SDS011;40208;39.778;2.710;2023-04-15T02:40:15;13.32;;;2.88;;
54307;SDS011;40208;39.778;2.710;2023-04-15T02:43:01;11.18;;;2.55;;
54307;SDS011;40208;39.778;2.710;2023-04-15T02:45:45;15.10;;;2.58;;
54307;SDS011;40208;39.778;2.710;2023-04-15T02:48:31;16.83;;;3.20;;
54307;SDS011;40208;39.778;2.710;2023-04-15T02:51:17;13.40;;;2.85;;
54307;SDS011;40208;39.778;2.710;2023-04-15T02:54:03;16.75;;;3.08;;
54307;SDS011;40208;39.778;2.710;2023-04-15T02:56:48;15.75;;;2.88;;
54307;SDS011;40208;39.778;2.710;2023-04-15T02:59:33;21.55;;;3.63;;
54307;SDS011;40208;39.778;2.710;2023-04-15T03:02:18;19.73;;;2.85;;
54307;SDS011;40208;39.778;2.710;2023-04-15T03:05:03;17.20;;;3.17;;
54307;SDS011;40208;39.778;2.710;2023-04-15T03:07:49;19.83;;;3.63;;
54307;SDS011;40208;39.778;2.710;2023-04-15T03:10:34;21.13;;;4.38;;
54307;SDS011;40208;39.778;2.710;2023-04-15T03:13:19;15.25;;;3.70;;
54307;SDS011;40208;39.778;2.710;2023-04-15T03:16:04;12.73;;;3.13;;
54307;SDS011;40208;39.778;2.710;2023-04-15T03:18:50;15.88;;;3.58;;
54307;SDS011;40208;39.778;2.710;2023-04-15T03:21:34;19.23;;;2.92;;
54307;SDS011;40208;39.778;2.710;2023-04-15T03:24:19;17.40;;;3.20;;
54307;SDS011;40208;39.778;2.710;2023-04-15T03:27:04;20.58;;;3.25;;
54307;SDS011;40208;39.778;2.710;2023-04-15T03:29:51;14.98;;;3.35;;
54307;SDS011;40208;39.778;2.710;2023-04-15T03:32:35;16.52;;;3.38;;
54307;SDS011;40208;39.778;2.710;2023-04-15T03:35:20;22.00;;;3.65;;
54307;SDS011;40208;39.778;2.710;2023-04-15T03:38:05;21.42;;;3.88;;
54307;SDS011;40208;39.778;2.710;2023-04-15T03:40:50;17.48;;;2.90;;
54307;SDS011;40208;39.778;2.710;2023-04-15T03:43:35;23.17;;;3.70;;
54307;SDS011;40208;39.778;2.710;2023-04-15T03:46:20;25.85;;;4.03;;
54307;SDS011;40208;39.778;2.710;2023-04-15T03:49:05;13.85;;;3.13;;
54307;SDS011;40208;39.778;2.710;2023-04-15T03:51:50;17.67;;;3.05;;
54307;SDS011;40208;39.778;2.710;2023-04-15T03:54:35;14.88;;;3.53;;
54307;SDS011;40208;39.778;2.710;2023-04-15T03:57:20;16.13;;;3.30;;
54307;SDS011;40208;39.778;2.710;2023-04-15T04:00:05;16.30;;;2.90;;
54307;SDS011;40208;39.778;2.710;2023-04-15T04:02:52;16.13;;;3.42;;
54307;SDS011;40208;39.778;2.710;2023-04-15T04:05:37;23.58;;;3.80;;
54307;SDS011;40208;39.778;2.710;2023-04-15T04:08:24;20.15;;;3.45;;
54307;SDS011;40208;39.778;2.710;2023-04-15T04:11:10;21.17;;;3.63;;
54307;SDS011;40208;39.778;2.710;2023-04-15T04:13:55;18.13;;;2.90;;
54307;SDS011;40208;39.778;2.710;2023-04-15T04:16:40;18.60;;;3.42;;
54307;SDS011;40208;39.778;2.710;2023-04-15T04:19:25;20.52;;;3.65;;
54307;SDS011;40208;39.778;2.710;2023-04-15T04:22:10;29.48;;;4.10;;
54307;SDS011;40208;39.778;2.710;2023-04-15T04:24:55;17.67;;;3.03;;
54307;SDS011;40208;39.778;2.710;2023-04-15T04:27:42;14.63;;;3.20;;
54307;SDS011;40208;39.778;2.710;2023-04-15T04:30:28;18.52;;;3.63;;
54307;SDS011;40208;39.778;2.710;2023-04-15T04:33:13;19.50;;;3.63;;
54307;SDS011;40208;39.778;2.710;2023-04-15T04:35:58;21.63;;;4.13;;
54307;SDS011;40208;39.778;2.710;2023-04-15T04:38:43;24.75;;;3.47;;
54307;SDS011;40208;39.778;2.710;2023-04-15T04:41:27;17.00;;;3.40;;
54307;SDS011;40208;39.778;2.710;2023-04-15T04:44:13;24.80;;;4.43;;
54307;SDS011;40208;39.778;2.710;2023-04-15T04:46:58;19.40;;;3.75;;
54307;SDS011;40208;39.778;2.710;2023-04-15T04:49:43;17.27;;;3.00;;
54307;SDS011;40208;39.778;2.710;2023-04-15T04:52:27;17.17;;;2.97;;
54307;SDS011;40208;39.778;2.710;2023-04-15T04:55:12;19.13;;;3.30;;
54307;SDS011;40208;39.778;2.710;2023-04-15T04:57:57;23.73;;;3.90;;
54307;SDS011;40208;39.778;2.710;2023-04-15T05:00:42;24.70;;;3.92;;
54307;SDS011;40208;39.778;2.710;2023-04-15T05:03:27;23.75;;;3.92;;
54307;SDS011;40208;39.778;2.710;2023-04-15T05:06:12;26.85;;;4.07;;
54307;SDS011;40208;39.778;2.710;2023-04-15T05:08:57;21.70;;;4.00;;
54307;SDS011;40208;39.778;2.710;2023-04-15T05:11:41;16.17;;;3.92;;
54307;SDS011;40208;39.778;2.710;2023-04-15T05:14:26;15.05;;;3.25;;
54307;SDS011;40208;39.778;2.710;2023-04-15T05:17:11;19.02;;;3.22;;
54307;SDS011;40208;39.778;2.710;2023-04-15T05:19:57;24.42;;;4.13;;
54307;SDS011;40208;39.778;2.710;2023-04-15T05:22:42;21.50;;;3.78;;
54307;SDS011;40208;39.778;2.710;2023-04-15T05:25:26;21.15;;;3.92;;
54307;SDS011;40208;39.778;2.710;2023-04-15T05:28:12;24.60;;;3.97;;
54307;SDS011;40208;39.778;2.710;2023-04-15T05:30:56;19.42;;;4.25;;
54307;SDS011;40208;39.778;2.710;2023-04-15T05:33:42;14.30;;;2.90;;
54307;SDS011;40208;39.778;2.710;2023-04-15T05:36:26;20.73;;;3.50;;
54307;SDS011;40208;39.778;2.710;2023-04-15T05:39:12;21.92;;;3.30;;
54307;SDS011;40208;39.778;2.710;2023-04-15T05:41:57;16.00;;;3.65;;
54307;SDS011;40208;39.778;2.710;2023-04-15T05:44:43;21.42;;;4.15;;
54307;SDS011;40208;39.778;2.710;2023-04-15T05:47:28;22.05;;;3.72;;
54307;SDS011;40208;39.778;2.710;2023-04-15T05:50:12;18.13;;;3.20;;
54307;SDS011;40208;39.778;2.710;2023-04-15T05:52:57;19.88;;;3.55;;
54307;SDS011;40208;39.778;2.710;2023-04-15T05:55:42;22.55;;;4.03;;
54307;SDS011;40208;39.778;2.710;2023-04-15T05:58:27;22.70;;;3.88;;
54307;SDS011;40208;39.778;2.710;2023-04-15T06:01:12;28.02;;;5.10;;
54307;SDS011;40208;39.778;2.710;2023-04-15T06:03:57;19.90;;;3.53;;
54307;SDS011;40208;39.778;2.710;2023-04-15T06:06:42;18.05;;;4.30;;
54307;SDS011;40208;39.778;2.710;2023-04-15T06:09:27;26.90;;;4.18;;
54307;SDS011;40208;39.778;2.710;2023-04-15T06:12:12;14.68;;;3.47;;
54307;SDS011;40208;39.778;2.710;2023-04-15T06:14:57;26.00;;;4.30;;
54307;SDS011;40208;39.778;2.710;2023-04-15T06:17:42;20.85;;;3.67;;
54307;SDS011;40208;39.778;2.710;2023-04-15T06:20:26;23.80;;;4.75;;
54307;SDS011;40208;39.778;2.710;2023-04-15T06:23:12;29.77;;;4.32;;
54307;SDS011;40208;39.778;2.710;2023-04-15T06:25:57;18.48;;;3.70;;
54307;SDS011;40208;39.778;2.710;2023-04-15T06:28:42;21.33;;;3.72;;
54307;SDS011;40208;39.778;2.710;2023-04-15T06:31:27;18.83;;;3.83;;
54307;SDS011;40208;39.778;2.710;2023-04-15T06:34:11;26.48;;;4.75;;
54307;SDS011;40208;39.778;2.710;2023-04-15T06:36:56;25.73;;;4.03;;
54307;SDS011;40208;39.778;2.710;2023-04-15T06:39:41;24.35;;;4.22;;
54307;SDS011;40208;39.778;2.710;2023-04-15T06:42:26;23.73;;;3.83;;
54307;SDS011;40208;39.778;2.710;2023-04-15T06:45:11;22.17;;;3.78;;
54307;SDS011;40208;39.778;2.710;2023-04-15T06:47:56;23.02;;;3.63;;
54307;SDS011;40208;39.778;2.710;2023-04-15T06:50:41;23.88;;;5.65;;
54307;SDS011;40208;39.778;2.710;2023-04-15T06:53:26;21.15;;;6.18;;
54307;SDS011;40208;39.778;2.710;2023-04-15T06:56:13;26.33;;;5.25;;
54307;SDS011;40208;39.778;2.710;2023-04-15T06:58:58;18.42;;;3.90;;
54307;SDS011;40208;39.778;2.710;2023-04-15T07:01:43;27.10;;;3.88;;
54307;SDS011;40208;39.778;2.710;2023-04-15T07:04:28;18.42;;;3.47;;
54307;SDS011;40208;39.778;2.710;2023-04-15T07:07:13;19.23;;;4.35;;
54307;SDS011;40208;39.778;2.710;2023-04-15T07:09:58;15.30;;;3.85;;
54307;SDS011;40208;39.778;2.710;2023-04-15T07:12:45;16.45;;;3.65;;
54307;SDS011;40208;39.778;2.710;2023-04-15T07:15:31;14.25;;;3.22;;
54307;SDS011;40208;39.778;2.710;2023-04-15T07:18:16;12.77;;;3.90;;
54307;SDS011;40208;39.778;2.710;2023-04-15T07:21:01;22.75;;;4.30;;
54307;SDS011;40208;39.778;2.710;2023-04-15T07:23:46;17.73;;;3.35;;
54307;SDS011;40208;39.778;2.710;2023-04-15T07:26:31;18.75;;;4.07;;
54307;SDS011;40208;39.778;2.710;2023-04-15T07:29:16;15.43;;;3.80;;
54307;SDS011;40208;39.778;2.710;2023-04-15T07:32:00;19.23;;;3.10;;
54307;SDS011;40208;39.778;2.710;2023-04-15T07:34:45;15.60;;;3.75;;
54307;SDS011;40208;39.778;2.710;2023-04-15T07:37:30;9.80;;;3.22;;
54307;SDS011;40208;39.778;2.710;2023-04-15T07:40:15;17.83;;;3.22;;
54307;SDS011;40208;39.778;2.710;2023-04-15T07:43:00;15.20;;;3.13;;
54307;SDS011;40208;39.778;2.710;2023-04-15T07:45:45;16.60;;;3.00;;
54307;SDS011;40208;39.778;2.710;2023-04-15T07:48:30;15.18;;;3.35;;
54307;SDS011;40208;39.778;2.710;2023-04-15T07:51:15;20.27;;;3.33;;
54307;SDS011;40208;39.778;2.710;2023-04-15T07:54:01;15.02;;;3.30;;
54307;SDS011;40208;39.778;2.710;2023-04-15T07:56:46;19.20;;;2.75;;
54307;SDS011;40208;39.778;2.710;2023-04-15T07:59:31;13.55;;;3.20;;
54307;SDS011;40208;39.778;2.710;2023-04-15T08:02:16;20.58;;;3.50;;
54307;SDS011;40208;39.778;2.710;2023-04-15T08:05:02;17.25;;;2.97;;
54307;SDS011;40208;39.778;2.710;2023-04-15T08:07:48;15.25;;;3.25;;
54307;SDS011;40208;39.778;2.710;2023-04-15T08:10:33;14.88;;;3.40;;
54307;SDS011;40208;39.778;2.710;2023-04-15T08:13:18;15.32;;;2.95;;
54307;SDS011;40208;39.778;2.710;2023-04-15T08:16:18;23.20;;;4.40;;
54307;SDS011;40208;39.778;2.710;2023-04-15T08:19:05;22.52;;;3.63;;
54307;SDS011;40208;39.778;2.710;2023-04-15T08:21:50;16.48;;;3.42;;
54307;SDS011;40208;39.778;2.710;2023-04-15T08:24:35;20.48;;;3.78;;
54307;SDS011;40208;39.778;2.710;2023-04-15T08:27:20;15.30;;;3.65;;
54307;SDS011;40208;39.778;2.710;2023-04-15T08:30:06;17.85;;;3.85;;
54307;SDS011;40208;39.778;2.710;2023-04-15T08:32:51;14.23;;;3.45;;
54307;SDS011;40208;39.778;2.710;2023-04-15T08:35:36;13.60;;;3.30;;
54307;SDS011;40208;39.778;2.710;2023-04-15T08:38:21;18.02;;;3.40;;
54307;SDS011;40208;39.778;2.710;2023-04-15T08:41:17;19.73;;;4.07;;
54307;SDS011;40208;39.778;2.710;2023-04-15T08:44:08;23.48;;;3.63;;
54307;SDS011;40208;39.778;2.710;2023-04-15T08:46:55;25.80;;;4.78;;
54307;SDS011;40208;39.778;2.710;2023-04-15T08:49:40;22.80;;;4.05;;
54307;SDS011;40208;39.778;2.710;2023-04-15T08:52:26;19.08;;;3.90;;
54307;SDS011;40208;39.778;2.710;2023-04-15T08:55:11;23.83;;;4.00;;
54307;SDS011;40208;39.778;2.710;2023-04-15T08:57:58;22.90;;;3.90;;
54307;SDS011;40208;39.778;2.710;2023-04-15T09:00:45;23.52;;;3.97;;
54307;SDS011;40208;39.778;2.710;2023-04-15T09:03:32;16.85;;;4.13;;
54307;SDS011;40208;39.778;2.710;2023-04-15T09:06:19;19.70;;;4.00;;
54307;SDS011;40208;39.778;2.710;2023-04-15T09:09:04;18.70;;;3.75;;
54307;SDS011;40208;39.778;2.710;2023-04-15T09:11:49;20.23;;;4.35;;
54307;SDS011;40208;39.778;2.710;2023-04-15T09:14:34;13.07;;;2.40;;
54307;SDS011;40208;39.778;2.710;2023-04-15T09:17:19;19.70;;;3.53;;
54307;SDS011;40208;39.778;2.710;2023-04-15T09:22:54;11.95;;;3.25;;
54307;SDS011;40208;39.778;2.710;2023-04-15T09:25:40;20.00;;;3.65;;
54307;SDS011;40208;39.778;2.710;2023-04-15T09:28:28;15.27;;;3.42;;
54307;SDS011;40208;39.778;2.710;2023-04-15T09:31:13;14.07;;;2.95;;
54307;SDS011;40208;39.778;2.710;2023-04-15T09:33:58;16.55;;;2.70;;
54307;SDS011;40208;39.778;2.710;2023-04-15T09:39:45;16.75;;;3.35;;
54307;SDS011;40208;39.778;2.710;2023-04-15T09:42:31;10.48;;;2.70;;
54307;SDS011;40208;39.778;2.710;2023-04-15T09:45:16;15.40;;;3.20;;
54307;SDS011;40208;39.778;2.710;2023-04-15T09:51:05;10.75;;;2.78;;
54307;SDS011;40208;39.778;2.710;2023-04-15T09:53:50;14.93;;;3.70;;
54307;SDS011;40208;39.778;2.710;2023-04-15T09:56:38;16.38;;;3.95;;
54307;SDS011;40208;39.778;2.710;2023-04-15T09:59:26;20.90;;;4.10;;
54307;SDS011;40208;39.778;2.710;2023-04-15T10:02:11;13.57;;;2.97;;
54307;SDS011;40208;39.778;2.710;2023-04-15T10:04:57;12.63;;;2.70;;
54307;SDS011;40208;39.778;2.710;2023-04-15T10:07:43;17.73;;;3.10;;
54307;SDS011;40208;39.778;2.710;2023-04-15T10:10:29;15.50;;;3.38;;
54307;SDS011;40208;39.778;2.710;2023-04-15T10:13:17;16.55;;;3.10;;
54307;SDS011;40208;39.778;2.710;2023-04-15T10:16:05;11.95;;;2.95;;
54307;SDS011;40208;39.778;2.710;2023-04-15T10:18:54;13.45;;;2.88;;
54307;SDS011;40208;39.778;2.710;2023-04-15T10:21:40;15.30;;;3.28;;
54307;SDS011;40208;39.778;2.710;2023-04-15T10:24:25;14.38;;;3.38;;
54307;SDS011;40208;39.778;2.710;2023-04-15T10:27:18;9.73;;;2.33;;
54307;SDS011;40208;39.778;2.710;2023-04-15T10:30:04;17.23;;;3.40;;
54307;SDS011;40208;39.778;2.710;2023-04-15T10:32:50;12.93;;;3.83;;
54307;SDS011;40208;39.778;2.710;2023-04-15T10:35:35;16.30;;;3.35;;
54307;SDS011;40208;39.778;2.710;2023-04-15T10:38:31;10.25;;;2.85;;
54307;SDS011;40208;39.778;2.710;2023-04-15T10:41:25;8.40;;;2.65;;
54307;SDS011;40208;39.778;2.710;2023-04-15T10:44:14;11.90;;;2.65;;
54307;SDS011;40208;39.778;2.710;2023-04-15T10:46:59;15.60;;;3.47;;
54307;SDS011;40208;39.778;2.710;2023-04-15T10:49:47;15.23;;;2.50;;
54307;SDS011;40208;39.778;2.710;2023-04-15T10:52:34;12.23;;;2.65;;
54307;SDS011;40208;39.778;2.710;2023-04-15T10:55:25;13.60;;;2.70;;
54307;SDS011;40208;39.778;2.710;2023-04-15T10:58:10;15.32;;;2.75;;
54307;SDS011;40208;39.778;2.710;2023-04-15T11:00:55;11.00;;;2.55;;
54307;SDS011;40208;39.778;2.710;2023-04-15T11:03:41;12.02;;;2.72;;
54307;SDS011;40208;39.778;2.710;2023-04-15T11:06:42;10.77;;;2.53;;
54307;SDS011;40208;39.778;2.710;2023-04-15T11:09:31;14.13;;;2.85;;
54307;SDS011;40208;39.778;2.710;2023-04-15T11:12:17;10.75;;;2.58;;
54307;SDS011;40208;39.778;2.710;2023-04-15T11:18:27;13.30;;;2.35;;
54307;SDS011;40208;39.778;2.710;2023-04-15T11:21:13;11.05;;;2.90;;
54307;SDS011;40208;39.778;2.710;2023-04-15T11:23:59;10.77;;;2.58;;
54307;SDS011;40208;39.778;2.710;2023-04-15T11:26:43;13.52;;;2.38;;
54307;SDS011;40208;39.778;2.710;2023-04-15T11:29:30;14.15;;;2.60;;
54307;SDS011;40208;39.778;2.710;2023-04-15T11:32:18;14.95;;;2.67;;
54307;SDS011;40208;39.778;2.710;2023-04-15T11:35:11;10.25;;;3.08;;
54307;SDS011;40208;39.778;2.710;2023-04-15T11:37:56;16.63;;;3.13;;
54307;SDS011;40208;39.778;2.710;2023-04-15T11:40:42;19.40;;;3.47;;
54307;SDS011;40208;39.778;2.710;2023-04-15T11:43:27;9.82;;;2.63;;
54307;SDS011;40208;39.778;2.710;2023-04-15T11:46:15;11.95;;;3.03;;
54307;SDS011;40208;39.778;2.710;2023-04-15T11:49:01;18.60;;;3.42;;
54307;SDS011;40208;39.778;2.710;2023-04-15T11:51:46;20.80;;;2.90;;
54307;SDS011;40208;39.778;2.710;2023-04-15T11:54:30;18.65;;;2.65;;
54307;SDS011;40208;39.778;2.710;2023-04-15T11:57:16;15.52;;;2.33;;
54307;SDS011;40208;39.778;2.710;2023-04-15T12:00:01;13.88;;;2.85;;
54307;SDS011;40208;39.778;2.710;2023-04-15T12:02:48;11.80;;;2.40;;
54307;SDS011;40208;39.778;2.710;2023-04-15T12:11:33;18.27;;;2.50;;
54307;SDS011;40208;39.778;2.710;2023-04-15T12:14:32;13.55;;;3.30;;
54307;SDS011;40208;39.778;2.710;2023-04-15T12:17:17;22.58;;;4.63;;
54307;SDS011;40208;39.778;2.710;2023-04-15T12:20:02;20.00;;;3.88;;
54307;SDS011;40208;39.778;2.710;2023-04-15T12:22:46;11.10;;;3.17;;
54307;SDS011;40208;39.778;2.710;2023-04-15T12:25:32;17.65;;;3.35;;
54307;SDS011;40208;39.778;2.710;2023-04-15T12:28:18;19.42;;;3.80;;
54307;SDS011;40208;39.778;2.710;2023-04-15T12:31:09;9.85;;;2.75;;
54307;SDS011;40208;39.778;2.710;2023-04-15T12:33:55;14.35;;;3.35;;
54307;SDS011;40208;39.778;2.710;2023-04-15T12:36:41;14.50;;;3.70;;
54307;SDS011;40208;39.778;2.710;2023-04-15T12:39:27;16.90;;;3.08;;
54307;SDS011;40208;39.778;2.710;2023-04-15T12:42:14;10.93;;;3.38;;
54307;SDS011;40208;39.778;2.710;2023-04-15T12:45:00;15.82;;;2.63;;
54307;SDS011;40208;39.778;2.710;2023-04-15T12:47:45;18.77;;;3.63;;
54307;SDS011;40208;39.778;2.710;2023-04-15T12:50:30;12.60;;;2.22;;
54307;SDS011;40208;39.778;2.710;2023-04-15T12:53:15;12.60;;;3.20;;
54307;SDS011;40208;39.778;2.710;2023-04-15T12:56:00;13.32;;;2.47;;
54307;SDS011;40208;39.778;2.710;2023-04-15T12:58:45;19.67;;;3.33;;
54307;SDS011;40208;39.778;2.710;2023-04-15T13:01:29;12.88;;;3.05;;
54307;SDS011;40208;39.778;2.710;2023-04-15T13:04:15;18.80;;;2.42;;
54307;SDS011;40208;39.778;2.710;2023-04-15T13:07:00;12.68;;;3.05;;
54307;SDS011;40208;39.778;2.710;2023-04-15T13:09:46;19.83;;;2.28;;
54307;SDS011;40208;39.778;2.710;2023-04-15T13:12:30;17.00;;;2.88;;
54307;SDS011;40208;39.778;2.710;2023-04-15T13:15:19;17.42;;;3.40;;
54307;SDS011;40208;39.778;2.710;2023-04-15T13:18:06;10.38;;;2.72;;
54307;SDS011;40208;39.778;2.710;2023-04-15T13:20:51;15.13;;;2.05;;
54307;SDS011;40208;39.778;2.710;2023-04-15T13:23:35;12.10;;;2.53;;
54307;SDS011;40208;39.778;2.710;2023-04-15T13:26:20;13.68;;;2.55;;
54307;SDS011;40208;39.778;2.710;2023-04-15T13:29:05;11.82;;;2.38;;
54307;SDS011;40208;39.778;2.710;2023-04-15T13:31:50;16.58;;;2.65;;
54307;SDS011;40208;39.778;2.710;2023-04-15T13:34:35;15.95;;;2.25;;
54307;SDS011;40208;39.778;2.710;2023-04-15T13:37:24;12.23;;;2.30;;
54307;SDS011;40208;39.778;2.710;2023-04-15T13:40:12;13.70;;;2.22;;
54307;SDS011;40208;39.778;2.710;2023-04-15T13:42:57;18.85;;;3.08;;
54307;SDS011;40208;39.778;2.710;2023-04-15T13:45:43;7.70;;;2.03;;
54307;SDS011;40208;39.778;2.710;2023-04-15T13:48:28;14.00;;;2.45;;
54307;SDS011;40208;39.778;2.710;2023-04-15T13:51:13;11.02;;;2.22;;
54307;SDS011;40208;39.778;2.710;2023-04-15T13:53:58;24.50;;;2.42;;
54307;SDS011;40208;39.778;2.710;2023-04-15T13:56:43;17.92;;;2.22;;
54307;SDS011;40208;39.778;2.710;2023-04-15T13:59:27;10.30;;;1.92;;
54307;SDS011;40208;39.778;2.710;2023-04-15T14:02:12;5.68;;;1.70;;
54307;SDS011;40208;39.778;2.710;2023-04-15T14:04:57;10.50;;;2.53;;
54307;SDS011;40208;39.778;2.710;2023-04-15T14:07:42;11.68;;;1.85;;
54307;SDS011;40208;39.778;2.710;2023-04-15T14:10:27;10.20;;;2.05;;
54307;SDS011;40208;39.778;2.710;2023-04-15T14:13:12;10.38;;;2.15;;
54307;SDS011;40208;39.778;2.710;2023-04-15T14:15:58;9.93;;;1.80;;
54307;SDS011;40208;39.778;2.710;2023-04-15T14:18:43;7.88;;;1.98;;
54307;SDS011;40208;39.778;2.710;2023-04-15T14:21:28;8.27;;;2.10;;
54307;SDS011;40208;39.778;2.710;2023-04-15T14:24:16;8.85;;;1.90;;
54307;SDS011;40208;39.778;2.710;2023-04-15T14:27:01;15.77;;;1.88;;
54307;SDS011;40208;39.778;2.710;2023-04-15T14:29:46;13.77;;;2.00;;
54307;SDS011;40208;39.778;2.710;2023-04-15T14:32:31;8.45;;;1.77;;
54307;SDS011;40208;39.778;2.710;2023-04-15T14:35:16;9.10;;;1.75;;
54307;SDS011;40208;39.778;2.710;2023-04-15T14:38:00;12.23;;;1.75;;
54307;SDS011;40208;39.778;2.710;2023-04-15T14:40:45;9.93;;;2.10;;
54307;SDS011;40208;39.778;2.710;2023-04-15T14:43:30;9.85;;;1.88;;
54307;SDS011;40208;39.778;2.710;2023-04-15T14:46:15;7.10;;;1.77;;
54307;SDS011;40208;39.778;2.710;2023-04-15T14:49:00;10.07;;;2.13;;
54307;SDS011;40208;39.778;2.710;2023-04-15T14:51:45;9.25;;;1.73;;
54307;SDS011;40208;39.778;2.710;2023-04-15T14:54:30;12.45;;;1.67;;
54307;SDS011;40208;39.778;2.710;2023-04-15T14:57:15;19.42;;;2.38;;
54307;SDS011;40208;39.778;2.710;2023-04-15T15:00:00;15.73;;;2.40;;
54307;SDS011;40208;39.778;2.710;2023-04-15T15:02:46;9.27;;;1.85;;
54307;SDS011;40208;39.778;2.710;2023-04-15T15:05:30;10.45;;;2.20;;
54307;SDS011;40208;39.778;2.710;2023-04-15T15:08:15;8.95;;;2.63;;
54307;SDS011;40208;39.778;2.710;2023-04-15T15:11:00;16.02;;;2.15;;
54307;SDS011;40208;39.778;2.710;2023-04-15T15:13:45;19.52;;;3.15;;
54307;SDS011;40208;39.778;2.710;2023-04-15T15:16:29;11.45;;;1.85;;
54307;SDS011;40208;39.778;2.710;2023-04-15T15:19:14;21.33;;;2.28;;
54307;SDS011;40208;39.778;2.710;2023-04-15T15:22:00;25.55;;;2.78;;
54307;SDS011;40208;39.778;2.710;2023-04-15T15:24:44;19.92;;;2.35;;
54307;SDS011;40208;39.778;2.710;2023-04-15T15:27:29;16.70;;;2.40;;
54307;SDS011;40208;39.778;2.710;2023-04-15T15:30:15;18.95;;;2.42;;
54307;SDS011;40208;39.778;2.710;2023-04-15T15:33:00;13.40;;;2.13;;
54307;SDS011;40208;39.778;2.710;2023-04-15T15:35:44;11.27;;;2.33;;
54307;SDS011;40208;39.778;2.710;2023-04-15T15:38:30;11.20;;;1.88;;
54307;SDS011;40208;39.778;2.710;2023-04-15T15:41:15;12.73;;;1.95;;
54307;SDS011;40208;39.778;2.710;2023-04-15T15:43:59;12.07;;;1.98;;
54307;SDS011;40208;39.778;2.710;2023-04-15T15:46:44;13.07;;;2.00;;
54307;SDS011;40208;39.778;2.710;2023-04-15T15:49:29;8.45;;;2.17;;
54307;SDS011;40208;39.778;2.710;2023-04-15T15:52:14;15.45;;;1.83;;
54307;SDS011;40208;39.778;2.710;2023-04-15T15:54:59;9.13;;;1.88;;
54307;SDS011;40208;39.778;2.710;2023-04-15T15:57:45;12.45;;;1.95;;
54307;SDS011;40208;39.778;2.710;2023-04-15T16:00:30;13.48;;;2.25;;
54307;SDS011;40208;39.778;2.710;2023-04-15T16:03:14;15.48;;;1.80;;
54307;SDS011;40208;39.778;2.710;2023-04-15T16:05:59;8.95;;;2.15;;
54307;SDS011;40208;39.778;2.710;2023-04-15T16:08:44;16.17;;;2.15;;
54307;SDS011;40208;39.778;2.710;2023-04-15T16:11:29;7.60;;;1.80;;
54307;SDS011;40208;39.778;2.710;2023-04-15T16:14:14;13.57;;;3.40;;
54307;SDS011;40208;39.778;2.710;2023-04-15T16:16:58;17.33;;;2.35;;
54307;SDS011;40208;39.778;2.710;2023-04-15T16:19:43;19.38;;;2.22;;
54307;SDS011;40208;39.778;2.710;2023-04-15T16:22:28;10.48;;;1.77;;
54307;SDS011;40208;39.778;2.710;2023-04-15T16:25:13;10.05;;;2.35;;
54307;SDS011;40208;39.778;2.710;2023-04-15T16:27:58;9.98;;;1.52;;
54307;SDS011;40208;39.778;2.710;2023-04-15T16:30:43;9.98;;;1.80;;
54307;SDS011;40208;39.778;2.710;2023-04-15T16:33:30;10.00;;;1.88;;
54307;SDS011;40208;39.778;2.710;2023-04-15T16:36:15;12.57;;;1.70;;
54307;SDS011;40208;39.778;2.710;2023-04-15T16:39:01;12.70;;;2.10;;
54307;SDS011;40208;39.778;2.710;2023-04-15T16:41:47;12.45;;;2.60;;